Time;durP1;ratioP1;P1;durP2;ratioP2;P2;SDS_P1;SDS_P2;PMS_P1;PMS_P2;Temp;Humidity;BMP_temperature;BMP_pressure;BME280_temperature;BME280_humidity;BME280_pressure;Samples;Min_cycle;Max_cycle;Signal;HPM_P1;HPM_P2
2021/01/10 00:00:18;;;;;;;6.88;3.13;;;1.30;77.70;;;;;;10042304;28;21470;-63
2021/01/10 00:05:12;;;;;;;6.93;3.83;;;1.20;77.80;;;;;;10042075;28;20496;-62
2021/01/10 00:10:10;;;;;;;5.80;3.33;;;1.20;77.80;;;;;;10034802;28;20462;-61
2021/01/10 00:15:00;;;;;;;7.55;3.40;;;1.20;78.40;;;;;;10023546;28;20032;-62
2021/01/10 00:19:51;;;;;;;7.68;3.60;;;1.20;78.40;;;;;;10043316;28;20047;-60
2021/01/10 00:24:41;;;;;;;7.07;2.72;;;1.20;78.30;;;;;;10035472;28;20036;-61
2021/01/10 00:29:33;;;;;;;6.65;3.30;;;1.20;78.30;;;;;;10041539;28;20658;-60
2021/01/10 00:34:24;;;;;;;6.43;3.35;;;1.20;78.50;;;;;;10039238;28;20056;-61
2021/01/10 00:39:14;;;;;;;5.93;2.80;;;1.10;78.60;;;;;;10041185;28;20041;-62
2021/01/10 00:44:06;;;;;;;6.85;2.88;;;1.20;78.50;;;;;;10040925;28;20037;-70
2021/01/10 00:48:56;;;;;;;7.32;3.17;;;1.10;78.60;;;;;;10037110;28;20080;-69
2021/01/10 00:53:47;;;;;;;8.77;3.47;;;1.10;78.30;;;;;;10034807;28;20426;-70
2021/01/10 00:58:38;;;;;;;7.55;2.55;;;1.10;78.40;;;;;;10036940;28;20324;-69
2021/01/10 01:03:28;;;;;;;8.23;2.90;;;1.10;78.50;;;;;;10049027;28;20129;-70
2021/01/10 01:08:19;;;;;;;6.35;3.20;;;1.10;78.10;;;;;;10038415;28;20104;-69
2021/01/10 01:13:09;;;;;;;6.97;3.00;;;1.10;78.20;;;;;;10036057;28;20042;-60
2021/01/10 01:18:00;;;;;;;6.68;2.88;;;1.10;78.20;;;;;;10031285;28;20403;-69
2021/01/10 01:22:50;;;;;;;6.45;2.72;;;1.10;78.20;;;;;;10018419;28;20021;-69
2021/01/10 01:27:41;;;;;;;7.50;3.08;;;1.00;78.10;;;;;;10039178;28;20038;-62
2021/01/10 01:32:35;;;;;;;6.85;2.53;;;1.00;78.10;;;;;;10024544;28;20518;-69
2021/01/10 01:37:25;;;;;;;6.45;3.15;;;1.00;78.20;;;;;;10037316;28;20343;-68
2021/01/10 01:42:16;;;;;;;5.00;2.42;;;1.00;78.40;;;;;;10035337;28;20029;-69
2021/01/10 01:47:07;;;;;;;6.22;3.00;;;1.00;78.20;;;;;;10024869;28;20038;-69
2021/01/10 01:51:58;;;;;;;7.28;2.85;;;1.00;78.20;;;;;;10037903;28;20028;-70
2021/01/10 01:56:48;;;;;;;6.72;2.83;;;0.90;78.00;;;;;;10038668;28;20039;-70
2021/01/10 02:01:39;;;;;;;6.93;2.70;;;0.90;77.90;;;;;;10039253;28;20029;-70
2021/01/10 02:06:52;;;;;;;6.97;2.88;;;0.90;77.70;;;;;;10030221;28;20099;-60
2021/01/10 02:11:47;;;;;;;4.47;2.08;;;0.90;77.60;;;;;;10034036;28;20044;-61
2021/01/10 02:16:38;;;;;;;8.80;2.83;;;0.90;77.20;;;;;;10013229;28;20042;-60
2021/01/10 02:21:30;;;;;;;5.22;2.28;;;0.90;76.70;;;;;;10033973;28;20168;-61
2021/01/10 02:26:21;;;;;;;4.05;2.38;;;0.90;76.50;;;;;;10035018;28;20116;-62
2021/01/10 02:31:14;;;;;;;4.95;2.15;;;0.90;76.50;;;;;;10036903;28;20116;-62
2021/01/10 02:36:19;;;;;;;7.00;2.95;;;0.90;76.30;;;;;;10033004;28;20029;-61
2021/01/10 02:41:28;;;;;;;6.50;2.83;;;0.90;76.00;;;;;;10031488;28;20086;-63
2021/01/10 02:46:19;;;;;;;7.05;2.40;;;0.90;76.30;;;;;;10037508;28;20100;-59
2021/01/10 02:51:10;;;;;;;4.10;2.22;;;0.90;76.20;;;;;;10012500;28;20045;-69
2021/01/10 02:56:01;;;;;;;5.22;2.40;;;0.80;76.10;;;;;;10033094;28;20716;-68
2021/01/10 03:00:53;;;;;;;4.38;2.47;;;0.80;76.10;;;;;;10036265;28;20022;-68
2021/01/10 03:05:45;;;;;;;5.82;2.13;;;0.70;76.00;;;;;;10030470;28;20041;-68
2021/01/10 03:10:36;;;;;;;5.97;2.33;;;0.70;75.80;;;;;;10036609;28;20025;-68
2021/01/10 03:15:28;;;;;;;4.90;1.83;;;0.70;75.90;;;;;;10033265;28;20033;-68
2021/01/10 03:20:20;;;;;;;5.65;1.98;;;0.70;75.70;;;;;;10034676;28;20033;-70
2021/01/10 03:25:16;;;;;;;4.35;2.42;;;0.70;75.70;;;;;;10030409;28;20112;-69
2021/01/10 03:30:09;;;;;;;4.63;1.88;;;0.70;75.50;;;;;;10038224;28;20048;-69
2021/01/10 03:35:00;;;;;;;4.03;1.65;;;0.70;75.40;;;;;;10035056;28;20147;-68
2021/01/10 03:39:51;;;;;;;3.88;1.98;;;0.70;75.40;;;;;;10033104;28;20151;-70
2021/01/10 03:44:42;;;;;;;3.28;1.55;;;0.70;75.80;;;;;;10038175;28;20108;-68
2021/01/10 03:49:32;;;;;;;6.03;2.22;;;0.70;75.10;;;;;;10042275;28;20030;-68
2021/01/10 03:54:23;;;;;;;3.00;2.00;;;0.70;75.20;;;;;;10033079;28;20034;-69
2021/01/10 03:59:13;;;;;;;7.38;1.85;;;0.60;75.30;;;;;;10040650;28;20067;-61
2021/01/10 04:04:04;;;;;;;3.47;1.70;;;0.70;75.40;;;;;;10038793;28;20466;-61
2021/01/10 04:08:55;;;;;;;5.30;2.15;;;0.70;75.30;;;;;;10038358;28;20516;-60
2021/01/10 04:13:45;;;;;;;4.60;2.22;;;0.80;75.20;;;;;;10038508;28;20056;-61
2021/01/10 04:18:36;;;;;;;6.85;2.70;;;1.00;75.40;;;;;;10038785;28;20034;-61
2021/01/10 04:23:26;;;;;;;4.75;1.75;;;1.00;75.60;;;;;;10035816;28;20408;-60
2021/01/10 04:28:17;;;;;;;4.32;2.53;;;1.10;75.50;;;;;;10040662;28;20080;-61
2021/01/10 04:33:08;;;;;;;6.10;2.15;;;1.20;75.30;;;;;;10040176;28;20059;-60
2021/01/10 04:37:58;;;;;;;5.57;2.22;;;1.10;75.70;;;;;;10038373;28;20120;-60
2021/01/10 04:42:50;;;;;;;6.22;2.42;;;1.10;76.10;;;;;;10036771;28;20048;-60
2021/01/10 04:47:42;;;;;;;5.38;2.35;;;1.10;76.20;;;;;;10041219;28;20447;-60
2021/01/10 04:52:36;;;;;;;5.55;2.28;;;1.20;76.10;;;;;;10042215;28;20037;-60
2021/01/10 04:57:27;;;;;;;5.20;2.53;;;1.20;76.20;;;;;;10035941;28;20026;-60
2021/01/10 05:02:23;;;;;;;5.28;2.70;;;1.10;76.40;;;;;;10038634;28;20037;-60
2021/01/10 05:07:14;;;;;;;4.72;2.45;;;1.20;76.60;;;;;;10036046;28;20053;-61
2021/01/10 05:12:05;;;;;;;6.82;2.83;;;1.20;76.40;;;;;;10036186;28;20069;-61
2021/01/10 05:16:59;;;;;;;8.23;2.97;;;1.20;76.60;;;;;;10034867;28;20034;-61
2021/01/10 05:21:49;;;;;;;5.47;2.78;;;1.20;76.70;;;;;;10035571;28;20037;-61
2021/01/10 05:26:41;;;;;;;5.55;3.05;;;1.20;76.70;;;;;;10038093;28;20041;-61
2021/01/10 05:31:35;;;;;;;5.63;3.22;;;1.30;76.70;;;;;;10038192;28;20141;-60
2021/01/10 05:36:31;;;;;;;6.90;3.40;;;1.20;77.00;;;;;;10016775;28;20427;-61
2021/01/10 05:41:23;;;;;;;7.30;2.88;;;1.20;76.80;;;;;;10037896;28;20033;-60
2021/01/10 05:46:17;;;;;;;7.40;2.50;;;1.00;77.20;;;;;;10038631;28;20042;-60
2021/01/10 05:51:09;;;;;;;7.95;2.88;;;0.90;77.60;;;;;;10036816;28;20255;-60
2021/01/10 05:56:01;;;;;;;4.07;2.15;;;0.80;78.10;;;;;;10030009;28;20751;-60
2021/01/10 06:00:52;;;;;;;6.03;3.10;;;0.70;78.90;;;;;;10034980;28;20419;-60
2021/01/10 06:06:15;;;;;;;7.45;3.00;;;0.60;78.60;;;;;;10016045;28;607295;-61
2021/01/10 06:11:18;;;;;;;6.72;2.97;;;0.50;79.10;;;;;;9848245;29;20036;-60
2021/01/10 06:16:08;;;;;;;6.30;2.63;;;0.50;79.00;;;;;;9850541;29;20494;-63
2021/01/10 06:21:02;;;;;;;7.43;2.97;;;0.50;79.60;;;;;;9845365;29;20047;-60
2021/01/10 06:25:52;;;;;;;6.28;3.25;;;0.50;79.40;;;;;;9846105;29;20145;-61
2021/01/10 06:30:54;;;;;;;5.03;2.47;;;0.40;79.70;;;;;;9846695;29;20066;-61
2021/01/10 06:35:44;;;;;;;5.75;2.88;;;0.40;79.90;;;;;;9829740;29;20038;-60
2021/01/10 06:40:37;;;;;;;4.65;2.58;;;0.40;79.30;;;;;;9846634;29;20417;-60
2021/01/10 06:45:39;;;;;;;5.75;2.28;;;0.40;80.20;;;;;;9943203;28;20053;-61
2021/01/10 06:50:31;;;;;;;6.70;2.85;;;0.30;79.80;;;;;;10036661;28;20057;-60
2021/01/10 06:55:22;;;;;;;6.72;3.15;;;0.30;80.00;;;;;;10037736;28;20754;-60
2021/01/10 07:00:13;;;;;;;8.52;3.15;;;0.30;80.20;;;;;;10038986;28;20049;-61
2021/01/10 07:05:04;;;;;;;6.97;3.22;;;0.30;80.70;;;;;;10040614;28;20065;-66
2021/01/10 07:09:55;;;;;;;6.63;2.85;;;0.20;81.20;;;;;;10035744;28;20069;-67
2021/01/10 07:14:45;;;;;;;4.85;2.70;;;0.20;81.80;;;;;;10039718;28;20582;-67
2021/01/10 07:19:43;;;;;;;6.15;2.25;;;0.10;81.00;;;;;;10041622;28;20499;-66
2021/01/10 07:24:34;;;;;;;8.40;2.78;;;0.10;82.10;;;;;;10042290;28;20113;-66
2021/01/10 07:29:43;;;;;;;5.53;3.53;;;0.10;81.90;;;;;;10041264;28;20052;-66
2021/01/10 07:34:36;;;;;;;7.38;3.17;;;0.10;81.10;;;;;;10043408;28;20025;-65
2021/01/10 07:39:32;;;;;;;7.32;3.05;;;0.10;81.10;;;;;;10043435;28;20096;-66
2021/01/10 07:44:45;;;;;;;6.95;2.58;;;0.10;81.30;;;;;;10039296;28;20033;-66
2021/01/10 07:49:49;;;;;;;9.23;3.08;;;0.10;82.00;;;;;;10025641;28;20037;-66
2021/01/10 07:54:54;;;;;;;7.70;2.75;;;0.10;81.00;;;;;;10038057;28;20407;-66
2021/01/10 07:59:45;;;;;;;9.48;3.88;;;0.10;81.70;;;;;;10044042;28;20752;-65
2021/01/10 08:04:35;;;;;;;7.47;3.33;;;0.20;81.30;;;;;;10041320;28;20084;-66
2021/01/10 08:09:33;;;;;;;4.60;2.70;;;0.20;80.90;;;;;;10039375;28;20107;-67
2021/01/10 08:14:24;;;;;;;7.35;2.83;;;0.20;81.40;;;;;;10042277;28;20501;-66
2021/01/10 08:19:16;;;;;;;4.88;2.67;;;0.20;82.10;;;;;;10022778;28;20029;-66
2021/01/10 08:24:07;;;;;;;7.60;2.85;;;0.20;82.30;;;;;;10037312;28;20487;-66
2021/01/10 08:29:03;;;;;;;6.65;3.38;;;0.30;82.10;;;;;;10038204;28;20057;-67
2021/01/10 08:34:08;;;;;;;4.93;2.80;;;0.30;81.70;;;;;;10040589;28;20026;-61
2021/01/10 08:39:09;;;;;;;8.55;4.03;;;0.30;82.10;;;;;;10040085;28;20497;-60
2021/01/10 08:44:15;;;;;;;7.28;3.35;;;0.40;81.60;;;;;;10036548;28;20435;-60
2021/01/10 08:49:05;;;;;;;7.50;3.53;;;0.40;81.40;;;;;;10023110;28;20037;-61
2021/01/10 08:53:56;;;;;;;4.80;2.92;;;0.50;81.60;;;;;;10036808;28;20037;-61
2021/01/10 08:58:52;;;;;;;6.43;3.28;;;0.50;81.30;;;;;;10039410;28;20045;-60
2021/01/10 09:03:54;;;;;;;8.30;3.50;;;0.50;81.30;;;;;;10038163;28;20055;-62
2021/01/10 09:08:47;;;;;;;5.80;3.35;;;0.70;81.70;;;;;;10038652;28;20519;-60
2021/01/10 09:13:41;;;;;;;6.45;3.30;;;0.80;82.00;;;;;;10038244;28;20411;-60
2021/01/10 09:18:36;;;;;;;9.30;3.22;;;0.90;81.50;;;;;;10039191;28;20392;-60
2021/01/10 09:23:28;;;;;;;7.47;2.88;;;0.90;81.70;;;;;;10036751;28;20145;-63
2021/01/10 09:28:21;;;;;;;7.53;3.75;;;0.90;81.30;;;;;;10030614;28;20115;-61
2021/01/10 09:33:12;;;;;;;5.93;2.90;;;1.00;80.80;;;;;;10036746;28;20048;-61
2021/01/10 09:38:13;;;;;;;8.43;3.78;;;1.10;80.50;;;;;;10039113;28;20029;-62
2021/01/10 09:43:04;;;;;;;5.10;2.90;;;1.20;80.10;;;;;;10035831;28;20029;-62
2021/01/10 09:47:56;;;;;;;7.72;3.45;;;1.30;79.50;;;;;;10029310;28;20037;-65
2021/01/10 09:52:52;;;;;;;6.82;3.22;;;1.30;79.30;;;;;;10038618;28;20700;-62
2021/01/10 09:57:42;;;;;;;5.13;2.72;;;1.40;79.30;;;;;;10044041;28;20029;-63
2021/01/10 10:02:37;;;;;;;4.57;2.60;;;1.50;77.60;;;;;;10044283;28;20041;-62
2021/01/10 10:07:35;;;;;;;6.75;2.83;;;1.50;78.30;;;;;;10022751;28;20033;-62
2021/01/10 10:12:26;;;;;;;4.55;2.50;;;1.60;77.10;;;;;;10031074;28;20573;-66
2021/01/10 10:17:18;;;;;;;4.25;2.42;;;1.70;76.50;;;;;;10033448;28;20064;-61
2021/01/10 10:22:29;;;;;;;4.82;2.28;;;1.80;76.90;;;;;;10034749;28;20692;-63
2021/01/10 10:27:21;;;;;;;5.07;2.40;;;1.80;74.90;;;;;;10034227;28;20426;-63
2021/01/10 10:32:12;;;;;;;6.95;3.33;;;1.90;75.10;;;;;;10029454;28;20034;-63
2021/01/10 10:37:07;;;;;;;3.75;2.25;;;1.90;74.70;;;;;;10033169;28;20025;-65
2021/01/10 10:41:57;;;;;;;3.00;1.95;;;2.00;73.30;;;;;;10022441;28;20017;-66
2021/01/10 10:46:48;;;;;;;4.28;2.10;;;2.10;74.30;;;;;;10028909;28;20037;-64
2021/01/10 10:51:39;;;;;;;4.03;2.17;;;2.20;73.50;;;;;;10024983;28;20037;-64
2021/01/10 10:56:37;;;;;;;3.90;2.22;;;2.10;71.40;;;;;;10042070;28;20404;-65
2021/01/10 11:01:40;;;;;;;4.90;2.20;;;2.30;72.30;;;;;;10041962;28;20038;-62
2021/01/10 11:06:31;;;;;;;3.45;1.63;;;2.50;72.80;;;;;;10027136;28;20054;-65
2021/01/10 11:11:22;;;;;;;4.63;1.70;;;2.50;72.50;;;;;;10025840;28;20574;-65
2021/01/10 11:16:12;;;;;;;2.55;2.03;;;2.50;71.90;;;;;;10020977;28;20057;-64
2021/01/10 11:21:03;;;;;;;4.18;1.60;;;2.60;72.10;;;;;;10022141;28;20496;-64
2021/01/10 11:25:53;;;;;;;2.72;1.88;;;2.60;71.50;;;;;;10020681;28;20036;-63
2021/01/10 11:30:44;;;;;;;6.05;2.30;;;2.60;70.90;;;;;;10017717;28;21285;-66
2021/01/10 11:35:34;;;;;;;2.75;2.05;;;2.70;71.10;;;;;;10030894;28;20056;-63
2021/01/10 11:40:25;;;;;;;3.00;1.60;;;2.80;70.20;;;;;;10022202;28;20041;-62
2021/01/10 11:45:16;;;;;;;2.95;1.60;;;2.80;69.60;;;;;;10019245;28;20032;-63
2021/01/10 11:50:06;;;;;;;2.20;1.70;;;2.80;67.30;;;;;;10036097;28;20397;-62
2021/01/10 11:54:57;;;;;;;3.50;1.85;;;2.80;69.10;;;;;;10028260;28;20415;-62
2021/01/10 11:59:48;;;;;;;3.45;1.85;;;2.90;67.60;;;;;;10029990;28;20040;-61
2021/01/10 12:04:38;;;;;;;3.40;1.88;;;2.90;69.30;;;;;;10030909;28;20046;-63
2021/01/10 12:09:29;;;;;;;4.78;2.15;;;3.00;68.50;;;;;;10029507;28;20575;-64
2021/01/10 12:14:19;;;;;;;4.82;2.05;;;3.00;69.00;;;;;;10039518;28;20029;-61
2021/01/10 12:19:10;;;;;;;4.32;1.90;;;3.10;67.40;;;;;;10032533;28;20033;-66
2021/01/10 12:24:01;;;;;;;5.13;1.98;;;3.10;67.10;;;;;;10042311;28;20021;-67
2021/01/10 12:28:51;;;;;;;3.40;2.10;;;3.00;67.90;;;;;;10043658;28;20391;-66
2021/01/10 12:33:42;;;;;;;4.05;2.15;;;3.10;67.80;;;;;;10040856;28;20029;-64
2021/01/10 12:38:33;;;;;;;3.47;1.75;;;3.20;67.90;;;;;;10039434;28;20087;-67
2021/01/10 12:43:24;;;;;;;4.78;2.33;;;3.20;66.80;;;;;;10042389;28;20079;-67
2021/01/10 12:48:18;;;;;;;3.72;2.45;;;3.20;66.50;;;;;;10017714;28;20452;-61
2021/01/10 12:53:09;;;;;;;5.00;1.95;;;3.20;66.60;;;;;;10037319;28;20025;-67
2021/01/10 12:58:00;;;;;;;3.35;2.00;;;3.20;67.40;;;;;;10037761;28;20033;-67
2021/01/10 13:02:50;;;;;;;4.00;2.05;;;3.20;66.90;;;;;;10040981;28;20103;-67
2021/01/10 13:07:41;;;;;;;2.20;1.65;;;3.20;65.80;;;;;;10041117;28;20411;-62
2021/01/10 13:12:32;;;;;;;5.65;2.97;;;3.20;66.50;;;;;;10040458;28;20017;-67
2021/01/10 13:17:23;;;;;;;6.15;2.20;;;3.20;66.50;;;;;;10039416;28;20032;-67
2021/01/10 13:22:13;;;;;;;5.03;2.15;;;3.20;66.60;;;;;;10036773;28;20025;-61
2021/01/10 13:27:05;;;;;;;4.75;2.38;;;3.30;66.50;;;;;;10021582;28;20029;-62
2021/01/10 13:31:55;;;;;;;4.45;1.95;;;3.30;66.30;;;;;;10032603;28;20140;-63
2021/01/10 13:36:46;;;;;;;4.22;2.50;;;3.30;66.40;;;;;;10040663;28;20273;-67
2021/01/10 13:41:37;;;;;;;4.30;2.50;;;3.30;65.50;;;;;;10037777;28;20397;-68
2021/01/10 13:46:27;;;;;;;4.63;2.55;;;3.30;66.00;;;;;;10038749;28;20124;-67
2021/01/10 13:51:28;;;;;;;4.35;2.50;;;3.30;66.20;;;;;;10039842;28;20408;-67
2021/01/10 13:56:19;;;;;;;3.03;2.20;;;3.20;65.60;;;;;;10036238;28;20112;-67
2021/01/10 14:01:11;;;;;;;5.35;2.72;;;3.20;66.50;;;;;;10040005;28;20025;-67
2021/01/10 14:06:02;;;;;;;4.97;3.15;;;3.20;66.00;;;;;;10039520;28;20041;-66
2021/01/10 14:10:52;;;;;;;4.40;2.58;;;3.20;66.50;;;;;;10039086;28;20121;-67
2021/01/10 14:15:43;;;;;;;4.57;2.80;;;3.10;65.80;;;;;;10035392;28;20026;-65
2021/01/10 14:20:33;;;;;;;5.97;3.22;;;3.10;66.20;;;;;;10022544;28;20025;-68
2021/01/10 14:25:24;;;;;;;4.78;2.67;;;3.00;65.80;;;;;;10037892;28;20091;-62
2021/01/10 14:30:18;;;;;;;5.35;2.60;;;2.90;65.80;;;;;;10036522;28;20045;-62
2021/01/10 14:35:09;;;;;;;4.00;2.28;;;3.00;66.30;;;;;;10036579;28;20037;-61
2021/01/10 14:39:59;;;;;;;3.60;2.58;;;3.00;66.00;;;;;;10037688;28;20036;-62
2021/01/10 14:44:50;;;;;;;6.20;2.28;;;3.00;65.50;;;;;;10040125;28;20021;-63
2021/01/10 14:49:40;;;;;;;6.43;2.25;;;3.00;66.00;;;;;;10032277;28;20076;-62
2021/01/10 14:54:31;;;;;;;3.13;2.03;;;3.00;65.70;;;;;;10033253;28;20022;-62
2021/01/10 14:59:22;;;;;;;5.78;2.22;;;3.00;65.80;;;;;;10037965;28;20063;-61
2021/01/10 15:04:12;;;;;;;3.83;2.50;;;2.90;66.00;;;;;;10037474;28;20049;-61
2021/01/10 15:09:07;;;;;;;5.93;2.97;;;2.80;66.30;;;;;;10035534;28;20065;-61
2021/01/10 15:13:58;;;;;;;5.93;2.83;;;2.80;66.40;;;;;;10034267;28;20407;-62
2021/01/10 15:18:50;;;;;;;6.78;2.72;;;2.80;66.40;;;;;;10035017;28;20124;-62
2021/01/10 15:23:42;;;;;;;4.85;2.92;;;2.70;66.50;;;;;;10016023;28;20172;-62
2021/01/10 15:28:33;;;;;;;4.78;2.10;;;2.70;66.60;;;;;;10020302;28;20076;-63
2021/01/10 15:33:23;;;;;;;6.55;2.70;;;2.70;66.60;;;;;;10033236;28;20353;-62
2021/01/10 15:38:14;;;;;;;4.93;2.20;;;2.60;66.80;;;;;;10035795;28;20079;-61
2021/01/10 15:43:06;;;;;;;5.53;2.60;;;2.50;67.00;;;;;;10041461;28;20413;-62
2021/01/10 15:47:57;;;;;;;5.28;2.95;;;2.40;67.40;;;;;;10044401;28;20033;-62
2021/01/10 15:52:48;;;;;;;4.07;2.28;;;2.40;67.80;;;;;;10038020;28;20372;-62
2021/01/10 15:57:38;;;;;;;5.95;2.75;;;2.30;68.00;;;;;;10023201;28;20040;-66
2021/01/10 16:02:29;;;;;;;6.47;2.58;;;2.20;68.30;;;;;;10042584;28;20057;-67
2021/01/10 16:07:20;;;;;;;4.90;2.28;;;2.10;68.60;;;;;;10043611;28;20018;-67
2021/01/10 16:12:10;;;;;;;5.53;2.90;;;2.10;68.60;;;;;;10036002;28;20045;-66
2021/01/10 16:17:01;;;;;;;4.30;2.20;;;2.10;68.80;;;;;;10036090;28;20522;-68
2021/01/10 16:21:52;;;;;;;5.38;2.65;;;2.00;69.10;;;;;;10046310;28;20021;-62
2021/01/10 16:26:43;;;;;;;5.97;2.90;;;2.00;69.30;;;;;;10038081;28;20029;-62
2021/01/10 16:31:37;;;;;;;7.28;2.30;;;1.90;69.40;;;;;;10035331;28;20026;-63
2021/01/10 16:36:28;;;;;;;4.20;3.58;;;1.90;69.50;;;;;;10022199;28;20040;-62
2021/01/10 16:41:18;;;;;;;6.70;2.88;;;1.90;69.70;;;;;;10040548;28;20519;-67
2021/01/10 16:46:09;;;;;;;5.40;2.63;;;1.80;69.80;;;;;;10043166;28;20025;-61
2021/01/10 16:50:59;;;;;;;5.88;2.35;;;1.80;70.00;;;;;;10019406;28;20044;-63
2021/01/10 16:55:50;;;;;;;4.05;2.83;;;1.80;70.10;;;;;;10040822;28;20041;-65
2021/01/10 17:00:40;;;;;;;4.78;2.67;;;1.80;70.00;;;;;;10039358;28;20411;-62
2021/01/10 17:05:31;;;;;;;8.05;3.08;;;1.70;70.20;;;;;;10044064;28;20075;-66
2021/01/10 17:10:21;;;;;;;6.07;2.92;;;1.60;70.80;;;;;;10038191;28;20037;-66
2021/01/10 17:15:13;;;;;;;9.60;2.80;;;1.60;70.50;;;;;;10037751;28;20553;-67
2021/01/10 17:20:04;;;;;;;6.78;3.38;;;1.60;70.90;;;;;;10038745;28;20484;-62
2021/01/10 17:24:55;;;;;;;4.28;2.22;;;1.60;70.90;;;;;;10039409;28;20032;-69
2021/01/10 17:29:45;;;;;;;5.72;3.08;;;1.60;71.20;;;;;;10037762;28;20037;-67
2021/01/10 17:34:36;;;;;;;6.57;2.83;;;1.50;71.70;;;;;;10030755;28;20119;-67
2021/01/10 17:39:27;;;;;;;6.07;3.53;;;1.50;71.70;;;;;;10037752;28;20415;-69
2021/01/10 17:44:17;;;;;;;7.15;3.45;;;1.40;71.50;;;;;;10042349;28;20148;-63
2021/01/10 17:49:08;;;;;;;9.43;3.53;;;1.40;72.20;;;;;;10035342;28;20372;-62
2021/01/10 17:53:58;;;;;;;7.40;3.13;;;1.40;71.90;;;;;;10033201;28;20057;-65
2021/01/10 17:58:49;;;;;;;6.47;2.92;;;1.40;72.30;;;;;;10033654;28;20053;-62
2021/01/10 18:03:39;;;;;;;6.72;2.72;;;1.30;72.50;;;;;;10037585;28;20037;-62
2021/01/10 18:08:31;;;;;;;6.75;2.90;;;1.30;72.60;;;;;;10034710;28;20021;-67
2021/01/10 18:13:22;;;;;;;9.05;3.90;;;1.30;72.60;;;;;;10035865;28;20030;-67
2021/01/10 18:18:13;;;;;;;6.38;3.35;;;1.30;72.70;;;;;;10039269;28;20038;-66
2021/01/10 18:23:05;;;;;;;12.93;5.18;;;1.30;73.20;;;;;;10035475;28;20630;-66
2021/01/10 18:27:55;;;;;;;7.35;4.57;;;1.30;73.10;;;;;;10024553;28;20456;-62
2021/01/10 18:32:47;;;;;;;7.00;3.92;;;1.30;73.30;;;;;;10040354;28;20351;-69
2021/01/10 18:37:38;;;;;;;6.30;4.05;;;1.20;73.30;;;;;;10039517;28;20033;-62
2021/01/10 18:42:29;;;;;;;9.57;3.67;;;1.20;73.60;;;;;;10037275;28;20511;-65
2021/01/10 18:47:20;;;;;;;9.10;3.65;;;1.20;73.60;;;;;;10037276;28;20038;-64
2021/01/10 18:52:11;;;;;;;7.45;3.38;;;1.20;73.60;;;;;;10035662;28;20037;-65
2021/01/10 18:57:04;;;;;;;10.48;3.97;;;1.10;73.80;;;;;;10036405;28;20504;-63
2021/01/10 19:01:56;;;;;;;6.53;3.38;;;1.10;74.10;;;;;;10032489;28;20052;-63
2021/01/10 19:06:46;;;;;;;7.95;3.78;;;1.00;74.30;;;;;;10035940;28;20194;-63
2021/01/10 19:11:37;;;;;;;6.97;3.25;;;1.00;74.20;;;;;;10036828;28;20029;-72
2021/01/10 19:16:28;;;;;;;7.40;3.53;;;1.00;74.20;;;;;;10026943;28;20112;-71
2021/01/10 19:21:21;;;;;;;7.90;3.15;;;0.90;74.70;;;;;;10029385;28;20021;-63
2021/01/10 19:26:17;;;;;;;10.45;4.07;;;0.90;74.70;;;;;;10028695;28;20017;-64
2021/01/10 19:31:08;;;;;;;8.40;4.07;;;0.90;74.40;;;;;;10039370;28;20030;-71
2021/01/10 19:36:00;;;;;;;7.60;3.53;;;0.80;74.30;;;;;;10041607;28;20055;-65
2021/01/10 19:40:50;;;;;;;6.07;3.17;;;0.80;74.90;;;;;;10040863;28;20032;-63
2021/01/10 19:45:41;;;;;;;11.45;4.30;;;0.80;75.00;;;;;;10031054;28;20055;-62
2021/01/10 19:50:32;;;;;;;10.93;3.72;;;0.80;74.90;;;;;;10039484;28;20040;-70
2021/01/10 19:55:22;;;;;;;5.20;3.28;;;0.70;75.00;;;;;;10036626;28;20124;-72
2021/01/10 20:00:14;;;;;;;7.47;3.22;;;0.70;74.90;;;;;;10045330;28;20497;-73
2021/01/10 20:05:05;;;;;;;12.25;4.80;;;0.70;74.90;;;;;;10048321;28;20099;-72
2021/01/10 20:09:56;;;;;;;11.20;4.30;;;0.60;75.50;;;;;;10056888;28;20109;-73
2021/01/10 20:14:48;;;;;;;6.60;3.72;;;0.60;76.10;;;;;;10052749;28;20240;-74
2021/01/10 20:19:47;;;;;;;9.60;4.50;;;0.70;75.80;;;;;;10032693;28;20033;-70
2021/01/10 20:24:37;;;;;;;8.85;3.65;;;0.60;75.80;;;;;;10052831;28;20038;-73
2021/01/10 20:29:28;;;;;;;11.63;4.40;;;0.50;76.00;;;;;;10052543;28;20033;-72
2021/01/10 20:34:19;;;;;;;9.48;3.72;;;0.60;75.60;;;;;;10048824;28;20135;-71
2021/01/10 20:39:09;;;;;;;8.73;3.78;;;0.60;76.10;;;;;;10044828;28;20056;-74
2021/01/10 20:44:00;;;;;;;8.10;3.10;;;0.50;76.00;;;;;;10046554;28;20025;-72
2021/01/10 20:48:51;;;;;;;9.93;3.95;;;0.50;76.40;;;;;;10034979;28;20037;-71
2021/01/10 20:53:42;;;;;;;10.63;4.18;;;0.50;75.90;;;;;;10054333;28;20041;-72
2021/01/10 20:58:32;;;;;;;10.57;3.38;;;0.40;75.90;;;;;;10051145;28;20036;-72
2021/01/10 21:03:23;;;;;;;8.88;4.30;;;0.40;76.60;;;;;;10047159;28;20053;-71
2021/01/10 21:08:13;;;;;;;9.13;4.00;;;0.40;76.30;;;;;;10049652;28;20407;-73
2021/01/10 21:13:04;;;;;;;10.43;4.07;;;0.40;76.40;;;;;;10045239;28;20045;-72
2021/01/10 21:17:55;;;;;;;7.55;3.40;;;0.30;76.60;;;;;;10028319;28;20060;-71
2021/01/10 21:22:52;;;;;;;13.93;4.70;;;0.30;76.30;;;;;;10039720;28;20072;-62
2021/01/10 21:27:43;;;;;;;10.77;4.68;;;0.30;76.50;;;;;;10039254;28;20056;-63
2021/01/10 21:32:34;;;;;;;12.50;5.07;;;0.30;76.50;;;;;;10031383;28;20037;-62
2021/01/10 21:37:24;;;;;;;10.10;4.35;;;0.30;76.00;;;;;;10035314;28;20034;-62
2021/01/10 21:42:15;;;;;;;9.07;4.65;;;0.20;75.90;;;;;;10031886;28;20033;-63
2021/01/10 21:47:05;;;;;;;9.18;4.25;;;0.20;76.10;;;;;;10036570;28;20047;-71
2021/01/10 21:51:56;;;;;;;13.52;4.57;;;0.10;76.10;;;;;;10025222;28;20454;-70
2021/01/10 21:56:52;;;;;;;13.23;5.05;;;0.00;76.20;;;;;;10038457;28;20091;-69
2021/01/10 22:01:42;;;;;;;11.63;4.60;;;0.00;76.20;;;;;;10035724;28;20032;-62
2021/01/10 22:06:33;;;;;;;9.35;4.55;;;0.00;76.20;;;;;;10033070;28;20060;-62
2021/01/10 22:11:24;;;;;;;7.32;4.43;;;0.00;76.20;;;;;;10034791;28;20065;-61
2021/01/10 22:16:22;;;;;;;9.60;4.47;;;0.00;76.40;;;;;;10039082;28;20025;-67
2021/01/10 22:21:13;;;;;;;10.50;4.95;;;0.00;76.50;;;;;;10038128;28;20033;-68
2021/01/10 22:26:04;;;;;;;13.73;4.95;;;0.00;76.50;;;;;;10032074;28;20027;-68
2021/01/10 22:30:55;;;;;;;10.60;4.47;;;-0.10;76.60;;;;;;10023743;28;20033;-60
2021/01/10 22:35:45;;;;;;;7.30;3.80;;;-0.10;76.60;;;;;;10034253;28;20446;-61
2021/01/10 22:40:36;;;;;;;10.48;4.38;;;-0.10;76.70;;;;;;10037621;28;20029;-67
2021/01/10 22:45:27;;;;;;;8.30;4.10;;;-0.10;76.70;;;;;;10034639;28;20042;-67
2021/01/10 22:50:17;;;;;;;7.22;3.35;;;-0.20;76.90;;;;;;10044287;28;20515;-67
2021/01/10 22:55:09;;;;;;;9.25;3.97;;;-0.10;77.20;;;;;;10045261;28;20034;-68
2021/01/10 22:59:59;;;;;;;9.10;4.43;;;-0.10;77.00;;;;;;10045667;28;20676;-67
2021/01/10 23:04:53;;;;;;;13.10;4.85;;;0.00;77.10;;;;;;10046596;28;20048;-61
2021/01/10 23:09:44;;;;;;;10.70;3.80;;;0.00;77.00;;;;;;10041302;28;20033;-60
2021/01/10 23:14:34;;;;;;;10.55;4.22;;;0.00;77.60;;;;;;10046166;28;20033;-61
2021/01/10 23:19:29;;;;;;;9.05;3.97;;;0.00;77.50;;;;;;10026919;28;20037;-59
2021/01/10 23:24:19;;;;;;;8.13;3.88;;;-0.10;77.90;;;;;;10040761;28;20137;-60
2021/01/10 23:29:10;;;;;;;8.45;3.78;;;-0.10;77.80;;;;;;10046555;28;20038;-61
2021/01/10 23:34:01;;;;;;;9.32;3.60;;;-0.20;77.80;;;;;;10044761;28;20037;-61
2021/01/10 23:38:52;;;;;;;9.18;3.85;;;-0.20;77.70;;;;;;10035881;28;20037;-60
2021/01/10 23:43:42;;;;;;;7.18;3.55;;;-0.20;78.00;;;;;;10042901;28;20033;-60
2021/01/10 23:48:33;;;;;;;11.35;4.18;;;-0.20;78.30;;;;;;10039143;28;23095;-60
2021/01/10 23:53:23;;;;;;;7.43;3.88;;;-0.20;78.00;;;;;;10036840;28;20037;-60
2021/01/10 23:58:14;;;;;;;8.35;3.45;;;-0.20;78.10;;;;;;10043823;28;20091;-60
